sensor_id;sensor_type;location;lat;lon;timestamp;temperature;humidity
37642;DHT22;23486;51.956;5.888;2023-10-09T00:00:31;13.60;99.90
37642;DHT22;23486;51.956;5.888;2023-10-09T00:02:56;13.60;99.90
37642;DHT22;23486;51.956;5.888;2023-10-09T00:05:26;13.60;99.90
37642;DHT22;23486;51.956;5.888;2023-10-09T00:08:11;13.60;99.90
37642;DHT22;23486;51.956;5.888;2023-10-09T00:10:43;13.60;99.90
37642;DHT22;23486;51.956;5.888;2023-10-09T00:13:19;13.60;99.90
37642;DHT22;23486;51.956;5.888;2023-10-09T00:15:45;13.60;99.90
37642;DHT22;23486;51.956;5.888;2023-10-09T00:18:18;13.60;99.90
37642;DHT22;23486;51.956;5.888;2023-10-09T00:20:48;13.60;99.90
37642;DHT22;23486;51.956;5.888;2023-10-09T00:23:19;13.60;99.90
37642;DHT22;23486;51.956;5.888;2023-10-09T00:25:52;13.70;99.90
37642;DHT22;23486;51.956;5.888;2023-10-09T00:28:37;13.70;99.90
37642;DHT22;23486;51.956;5.888;2023-10-09T00:31:06;13.70;99.90
37642;DHT22;23486;51.956;5.888;2023-10-09T00:33:33;13.70;99.90
37642;DHT22;23486;51.956;5.888;2023-10-09T00:36:04;13.60;99.90
37642;DHT22;23486;51.956;5.888;2023-10-09T00:38:39;13.60;99.90
37642;DHT22;23486;51.956;5.888;2023-10-09T00:41:14;13.60;99.90
37642;DHT22;23486;51.956;5.888;2023-10-09T00:43:46;13.60;99.90
37642;DHT22;23486;51.956;5.888;2023-10-09T00:46:16;13.50;99.90
37642;DHT22;23486;51.956;5.888;2023-10-09T00:48:53;13.50;99.90
37642;DHT22;23486;51.956;5.888;2023-10-09T00:51:19;13.50;99.90
37642;DHT22;23486;51.956;5.888;2023-10-09T00:54:00;13.50;99.90
37642;DHT22;23486;51.956;5.888;2023-10-09T00:56:32;13.50;99.90
37642;DHT22;23486;51.956;5.888;2023-10-09T00:59:05;13.40;99.90
37642;DHT22;23486;51.956;5.888;2023-10-09T01:01:41;13.40;99.90
37642;DHT22;23486;51.956;5.888;2023-10-09T01:04:21;13.40;99.90
37642;DHT22;23486;51.956;5.888;2023-10-09T01:06:48;13.40;99.90
37642;DHT22;23486;51.956;5.888;2023-10-09T01:09:29;13.40;99.90
37642;DHT22;23486;51.956;5.888;2023-10-09T01:12:01;13.40;99.90
37642;DHT22;23486;51.956;5.888;2023-10-09T01:14:27;13.40;99.90
37642;DHT22;23486;51.956;5.888;2023-10-09T01:16:53;13.50;99.90
37642;DHT22;23486;51.956;5.888;2023-10-09T01:19:21;13.50;99.90
37642;DHT22;23486;51.956;5.888;2023-10-09T01:21:51;13.50;99.90
37642;DHT22;23486;51.956;5.888;2023-10-09T01:24:16;13.60;99.90
37642;DHT22;23486;51.956;5.888;2023-10-09T01:26:45;13.60;99.90
37642;DHT22;23486;51.956;5.888;2023-10-09T01:29:22;13.60;99.90
37642;DHT22;23486;51.956;5.888;2023-10-09T01:31:52;13.60;99.90
37642;DHT22;23486;51.956;5.888;2023-10-09T01:34:22;13.70;99.90
37642;DHT22;23486;51.956;5.888;2023-10-09T01:37:08;13.70;99.90
37642;DHT22;23486;51.956;5.888;2023-10-09T01:39:55;13.70;99.90
37642;DHT22;23486;51.956;5.888;2023-10-09T01:42:53;13.80;99.90
37642;DHT22;23486;51.956;5.888;2023-10-09T01:45:19;13.80;99.90
37642;DHT22;23486;51.956;5.888;2023-10-09T01:47:45;13.80;99.90
37642;DHT22;23486;51.956;5.888;2023-10-09T01:50:23;13.90;99.90
37642;DHT22;23486;51.956;5.888;2023-10-09T01:53:00;13.90;99.90
37642;DHT22;23486;51.956;5.888;2023-10-09T01:55:31;13.90;99.90
37642;DHT22;23486;51.956;5.888;2023-10-09T01:58:00;14.00;99.90
37642;DHT22;23486;51.956;5.888;2023-10-09T02:00:34;14.00;99.90
37642;DHT22;23486;51.956;5.888;2023-10-09T02:03:07;14.00;99.90
37642;DHT22;23486;51.956;5.888;2023-10-09T02:05:36;14.00;99.90
37642;DHT22;23486;51.956;5.888;2023-10-09T02:08:02;14.10;99.90
37642;DHT22;23486;51.956;5.888;2023-10-09T02:10:29;14.10;99.90
37642;DHT22;23486;51.956;5.888;2023-10-09T02:13:07;14.10;99.90
37642;DHT22;23486;51.956;5.888;2023-10-09T02:15:40;14.10;99.90
37642;DHT22;23486;51.956;5.888;2023-10-09T02:18:15;14.10;99.90
37642;DHT22;23486;51.956;5.888;2023-10-09T02:23:30;14.10;99.90
37642;DHT22;23486;51.956;5.888;2023-10-09T02:26:25;14.20;99.90
37642;DHT22;23486;51.956;5.888;2023-10-09T02:28:55;14.20;99.90
37642;DHT22;23486;51.956;5.888;2023-10-09T02:31:25;14.20;99.90
37642;DHT22;23486;51.956;5.888;2023-10-09T02:33:53;14.20;99.90
37642;DHT22;23486;51.956;5.888;2023-10-09T02:36:23;14.20;99.90
37642;DHT22;23486;51.956;5.888;2023-10-09T02:38:49;14.30;99.90
37642;DHT22;23486;51.956;5.888;2023-10-09T02:41:18;14.30;99.90
37642;DHT22;23486;51.956;5.888;2023-10-09T02:43:48;14.30;99.90
37642;DHT22;23486;51.956;5.888;2023-10-09T02:46:19;14.20;99.90
37642;DHT22;23486;51.956;5.888;2023-10-09T02:48:46;14.30;99.90
37642;DHT22;23486;51.956;5.888;2023-10-09T02:51:21;14.30;99.90
37642;DHT22;23486;51.956;5.888;2023-10-09T02:54:02;14.30;99.90
37642;DHT22;23486;51.956;5.888;2023-10-09T02:56:47;14.40;99.90
37642;DHT22;23486;51.956;5.888;2023-10-09T02:59:20;14.40;99.90
37642;DHT22;23486;51.956;5.888;2023-10-09T03:01:47;14.40;99.90
37642;DHT22;23486;51.956;5.888;2023-10-09T03:04:13;14.40;99.90
37642;DHT22;23486;51.956;5.888;2023-10-09T03:06:43;14.40;99.90
37642;DHT22;23486;51.956;5.888;2023-10-09T03:09:19;14.40;99.90
37642;DHT22;23486;51.956;5.888;2023-10-09T03:12:03;14.40;99.90
37642;DHT22;23486;51.956;5.888;2023-10-09T03:14:37;14.50;99.90
37642;DHT22;23486;51.956;5.888;2023-10-09T03:17:03;14.50;99.90
37642;DHT22;23486;51.956;5.888;2023-10-09T03:19:31;14.50;99.90
37642;DHT22;23486;51.956;5.888;2023-10-09T03:22:03;14.50;99.90
37642;DHT22;23486;51.956;5.888;2023-10-09T03:24:29;14.50;99.90
37642;DHT22;23486;51.956;5.888;2023-10-09T03:26:56;14.50;99.90
37642;DHT22;23486;51.956;5.888;2023-10-09T03:29:22;14.50;99.90
37642;DHT22;23486;51.956;5.888;2023-10-09T03:31:48;14.50;99.90
37642;DHT22;23486;51.956;5.888;2023-10-09T03:34:16;14.50;99.90
37642;DHT22;23486;51.956;5.888;2023-10-09T03:36:42;14.50;99.90
37642;DHT22;23486;51.956;5.888;2023-10-09T03:39:09;14.60;99.90
37642;DHT22;23486;51.956;5.888;2023-10-09T03:41:55;14.60;99.90
37642;DHT22;23486;51.956;5.888;2023-10-09T03:44:24;14.60;99.90
37642;DHT22;23486;51.956;5.888;2023-10-09T03:46:51;14.60;99.90
37642;DHT22;23486;51.956;5.888;2023-10-09T03:49:16;14.60;99.90
37642;DHT22;23486;51.956;5.888;2023-10-09T03:51:48;14.60;99.90
37642;DHT22;23486;51.956;5.888;2023-10-09T03:54:15;14.70;99.90
37642;DHT22;23486;51.956;5.888;2023-10-09T03:56:41;14.60;99.90
37642;DHT22;23486;51.956;5.888;2023-10-09T03:59:07;14.70;99.90
37642;DHT22;23486;51.956;5.888;2023-10-09T04:01:36;14.70;99.90
37642;DHT22;23486;51.956;5.888;2023-10-09T04:04:06;14.70;99.90
37642;DHT22;23486;51.956;5.888;2023-10-09T04:06:36;14.70;99.90
37642;DHT22;23486;51.956;5.888;2023-10-09T04:09:07;14.70;99.90
37642;DHT22;23486;51.956;5.888;2023-10-09T04:11:46;14.70;99.90
37642;DHT22;23486;51.956;5.888;2023-10-09T04:14:14;14.70;99.90
37642;DHT22;23486;51.956;5.888;2023-10-09T04:16:59;14.70;99.90
37642;DHT22;23486;51.956;5.888;2023-10-09T04:19:31;14.70;99.90
37642;DHT22;23486;51.956;5.888;2023-10-09T04:22:07;14.80;99.90
37642;DHT22;23486;51.956;5.888;2023-10-09T04:24:34;14.80;99.90
37642;DHT22;23486;51.956;5.888;2023-10-09T04:27:09;14.80;99.90
37642;DHT22;23486;51.956;5.888;2023-10-09T04:29:35;14.80;99.90
37642;DHT22;23486;51.956;5.888;2023-10-09T04:32:12;14.80;99.90
37642;DHT22;23486;51.956;5.888;2023-10-09T04:34:51;14.80;99.90
37642;DHT22;23486;51.956;5.888;2023-10-09T04:37:42;14.80;99.90
37642;DHT22;23486;51.956;5.888;2023-10-09T04:40:10;14.90;99.90
37642;DHT22;23486;51.956;5.888;2023-10-09T04:42:37;14.90;99.90
37642;DHT22;23486;51.956;5.888;2023-10-09T04:45:05;14.90;99.90
37642;DHT22;23486;51.956;5.888;2023-10-09T04:47:32;14.90;99.90
37642;DHT22;23486;51.956;5.888;2023-10-09T04:50:05;14.90;99.90
37642;DHT22;23486;51.956;5.888;2023-10-09T04:52:33;14.90;99.90
37642;DHT22;23486;51.956;5.888;2023-10-09T04:55:00;15.00;99.90
37642;DHT22;23486;51.956;5.888;2023-10-09T04:57:35;15.00;99.90
37642;DHT22;23486;51.956;5.888;2023-10-09T05:00:14;15.00;99.90
37642;DHT22;23486;51.956;5.888;2023-10-09T05:02:53;15.00;99.90
37642;DHT22;23486;51.956;5.888;2023-10-09T05:05:33;15.00;99.90
37642;DHT22;23486;51.956;5.888;2023-10-09T05:08:09;15.00;99.90
37642;DHT22;23486;51.956;5.888;2023-10-09T05:10:52;15.00;99.90
37642;DHT22;23486;51.956;5.888;2023-10-09T05:16:20;15.10;99.90
37642;DHT22;23486;51.956;5.888;2023-10-09T05:18:52;15.10;99.90
37642;DHT22;23486;51.956;5.888;2023-10-09T05:21:33;15.10;99.90
37642;DHT22;23486;51.956;5.888;2023-10-09T05:24:10;15.20;99.90
37642;DHT22;23486;51.956;5.888;2023-10-09T05:26:49;15.20;99.90
37642;DHT22;23486;51.956;5.888;2023-10-09T05:29:20;15.20;99.90
37642;DHT22;23486;51.956;5.888;2023-10-09T05:31:59;15.10;99.90
37642;DHT22;23486;51.956;5.888;2023-10-09T05:34:31;15.20;99.90
37642;DHT22;23486;51.956;5.888;2023-10-09T05:37:02;15.20;99.90
37642;DHT22;23486;51.956;5.888;2023-10-09T05:39:56;15.20;99.90
37642;DHT22;23486;51.956;5.888;2023-10-09T05:42:34;15.20;99.90
37642;DHT22;23486;51.956;5.888;2023-10-09T05:45:09;15.20;99.90
37642;DHT22;23486;51.956;5.888;2023-10-09T05:47:54;15.20;99.90
37642;DHT22;23486;51.956;5.888;2023-10-09T05:50:29;15.20;99.90
37642;DHT22;23486;51.956;5.888;2023-10-09T05:53:01;15.20;99.90
37642;DHT22;23486;51.956;5.888;2023-10-09T05:55:28;15.20;99.90
37642;DHT22;23486;51.956;5.888;2023-10-09T05:58:12;15.20;99.90
37642;DHT22;23486;51.956;5.888;2023-10-09T06:00:56;15.20;99.90
37642;DHT22;23486;51.956;5.888;2023-10-09T06:03:51;15.20;99.90
37642;DHT22;23486;51.956;5.888;2023-10-09T06:06:23;15.20;99.90
37642;DHT22;23486;51.956;5.888;2023-10-09T06:09:07;15.20;99.90
37642;DHT22;23486;51.956;5.888;2023-10-09T06:11:46;15.20;99.90
37642;DHT22;23486;51.956;5.888;2023-10-09T06:14:17;15.20;99.90
37642;DHT22;23486;51.956;5.888;2023-10-09T06:16:56;15.20;99.90
37642;DHT22;23486;51.956;5.888;2023-10-09T06:19:25;15.20;99.90
37642;DHT22;23486;51.956;5.888;2023-10-09T06:21:59;15.20;99.90
37642;DHT22;23486;51.956;5.888;2023-10-09T06:24:43;15.20;99.90
37642;DHT22;23486;51.956;5.888;2023-10-09T06:27:18;15.20;99.90
37642;DHT22;23486;51.956;5.888;2023-10-09T06:29:57;15.20;99.90
37642;DHT22;23486;51.956;5.888;2023-10-09T06:32:42;15.20;99.90
37642;DHT22;23486;51.956;5.888;2023-10-09T06:35:17;15.20;99.90
37642;DHT22;23486;51.956;5.888;2023-10-09T06:37:52;15.20;99.90
37642;DHT22;23486;51.956;5.888;2023-10-09T06:43:11;15.30;99.90
37642;DHT22;23486;51.956;5.888;2023-10-09T06:45:43;15.30;99.90
37642;DHT22;23486;51.956;5.888;2023-10-09T06:48:11;15.30;99.90
37642;DHT22;23486;51.956;5.888;2023-10-09T06:50:55;15.30;99.90
37642;DHT22;23486;51.956;5.888;2023-10-09T06:53:21;15.40;99.90
37642;DHT22;23486;51.956;5.888;2023-10-09T06:55:54;15.40;99.90
37642;DHT22;23486;51.956;5.888;2023-10-09T06:58:31;15.40;99.90
37642;DHT22;23486;51.956;5.888;2023-10-09T07:01:08;15.40;99.90
37642;DHT22;23486;51.956;5.888;2023-10-09T07:03:57;15.40;99.90
37642;DHT22;23486;51.956;5.888;2023-10-09T07:06:35;15.50;99.90
37642;DHT22;23486;51.956;5.888;2023-10-09T07:09:04;15.40;99.90
37642;DHT22;23486;51.956;5.888;2023-10-09T07:11:32;15.50;99.90
37642;DHT22;23486;51.956;5.888;2023-10-09T07:16:58;15.50;99.90
37642;DHT22;23486;51.956;5.888;2023-10-09T07:19:29;15.60;99.90
37642;DHT22;23486;51.956;5.888;2023-10-09T07:22:23;15.60;99.90
37642;DHT22;23486;51.956;5.888;2023-10-09T07:24:56;15.70;99.90
37642;DHT22;23486;51.956;5.888;2023-10-09T07:30:11;15.80;99.90
37642;DHT22;23486;51.956;5.888;2023-10-09T07:33:07;15.80;99.90
37642;DHT22;23486;51.956;5.888;2023-10-09T07:38:11;15.90;99.90
37642;DHT22;23486;51.956;5.888;2023-10-09T07:40:37;15.90;99.90
37642;DHT22;23486;51.956;5.888;2023-10-09T07:43:29;15.90;99.90
37642;DHT22;23486;51.956;5.888;2023-10-09T07:46:02;16.00;99.90
37642;DHT22;23486;51.956;5.888;2023-10-09T07:48:47;16.00;99.90
37642;DHT22;23486;51.956;5.888;2023-10-09T07:51:21;16.00;99.90
37642;DHT22;23486;51.956;5.888;2023-10-09T07:53:52;16.10;99.90
37642;DHT22;23486;51.956;5.888;2023-10-09T07:56:36;16.00;99.90
37642;DHT22;23486;51.956;5.888;2023-10-09T07:59:11;16.10;99.90
37642;DHT22;23486;51.956;5.888;2023-10-09T08:01:57;16.20;99.90
37642;DHT22;23486;51.956;5.888;2023-10-09T08:04:29;16.20;99.90
37642;DHT22;23486;51.956;5.888;2023-10-09T08:07:09;16.20;99.90
37642;DHT22;23486;51.956;5.888;2023-10-09T08:09:36;16.20;99.90
37642;DHT22;23486;51.956;5.888;2023-10-09T08:12:14;16.30;99.90
37642;DHT22;23486;51.956;5.888;2023-10-09T08:15:03;16.30;99.90
37642;DHT22;23486;51.956;5.888;2023-10-09T08:17:48;16.40;99.90
37642;DHT22;23486;51.956;5.888;2023-10-09T08:20:25;16.50;99.90
37642;DHT22;23486;51.956;5.888;2023-10-09T08:22:55;16.60;99.90
37642;DHT22;23486;51.956;5.888;2023-10-09T08:25:24;16.60;99.90
37642;DHT22;23486;51.956;5.888;2023-10-09T08:27:55;16.70;99.90
37642;DHT22;23486;51.956;5.888;2023-10-09T08:30:23;16.70;99.90
37642;DHT22;23486;51.956;5.888;2023-10-09T08:32:52;16.80;99.90
37642;DHT22;23486;51.956;5.888;2023-10-09T08:35:28;16.90;99.90
37642;DHT22;23486;51.956;5.888;2023-10-09T08:38:01;16.90;99.90
37642;DHT22;23486;51.956;5.888;2023-10-09T08:40:40;17.00;99.90
37642;DHT22;23486;51.956;5.888;2023-10-09T08:43:19;17.00;99.90
37642;DHT22;23486;51.956;5.888;2023-10-09T08:45:52;17.10;99.90
37642;DHT22;23486;51.956;5.888;2023-10-09T08:48:18;17.10;99.90
37642;DHT22;23486;51.956;5.888;2023-10-09T08:50:46;17.20;99.90
37642;DHT22;23486;51.956;5.888;2023-10-09T08:53:13;17.20;99.90
37642;DHT22;23486;51.956;5.888;2023-10-09T08:55:39;17.30;99.90
37642;DHT22;23486;51.956;5.888;2023-10-09T08:58:06;17.40;99.90
37642;DHT22;23486;51.956;5.888;2023-10-09T09:00:52;17.40;99.90
37642;DHT22;23486;51.956;5.888;2023-10-09T09:03:21;17.50;99.90
37642;DHT22;23486;51.956;5.888;2023-10-09T09:06:01;17.50;99.90
37642;DHT22;23486;51.956;5.888;2023-10-09T09:08:28;17.60;99.90
37642;DHT22;23486;51.956;5.888;2023-10-09T09:11:04;17.70;99.90
37642;DHT22;23486;51.956;5.888;2023-10-09T09:13:44;17.70;99.90
37642;DHT22;23486;51.956;5.888;2023-10-09T09:16:23;17.80;99.90
37642;DHT22;23486;51.956;5.888;2023-10-09T09:19:03;17.80;99.90
37642;DHT22;23486;51.956;5.888;2023-10-09T09:21:37;17.90;99.90
37642;DHT22;23486;51.956;5.888;2023-10-09T09:24:11;17.90;99.90
37642;DHT22;23486;51.956;5.888;2023-10-09T09:26:50;17.90;99.90
37642;DHT22;23486;51.956;5.888;2023-10-09T09:29:39;18.00;99.90
37642;DHT22;23486;51.956;5.888;2023-10-09T09:32:09;18.10;99.90
37642;DHT22;23486;51.956;5.888;2023-10-09T09:34:56;18.10;99.90
37642;DHT22;23486;51.956;5.888;2023-10-09T09:37:27;18.20;99.90
37642;DHT22;23486;51.956;5.888;2023-10-09T09:40:01;18.20;99.90
37642;DHT22;23486;51.956;5.888;2023-10-09T09:42:37;18.30;99.90
37642;DHT22;23486;51.956;5.888;2023-10-09T09:45:04;18.40;99.90
37642;DHT22;23486;51.956;5.888;2023-10-09T09:47:31;18.50;99.90
37642;DHT22;23486;51.956;5.888;2023-10-09T09:50:01;18.60;99.90
37642;DHT22;23486;51.956;5.888;2023-10-09T09:52:49;18.70;99.90
37642;DHT22;23486;51.956;5.888;2023-10-09T09:55:24;18.80;99.90
37642;DHT22;23486;51.956;5.888;2023-10-09T09:57:56;18.80;99.90
37642;DHT22;23486;51.956;5.888;2023-10-09T10:00:25;18.80;99.90
37642;DHT22;23486;51.956;5.888;2023-10-09T10:03:06;18.90;99.90
37642;DHT22;23486;51.956;5.888;2023-10-09T10:05:33;18.90;99.90
37642;DHT22;23486;51.956;5.888;2023-10-09T10:08:00;19.00;99.90
37642;DHT22;23486;51.956;5.888;2023-10-09T10:10:40;19.00;99.90
37642;DHT22;23486;51.956;5.888;2023-10-09T10:16:06;19.20;99.90
37642;DHT22;23486;51.956;5.888;2023-10-09T10:18:55;19.20;99.90
37642;DHT22;23486;51.956;5.888;2023-10-09T10:21:28;19.30;99.90
37642;DHT22;23486;51.956;5.888;2023-10-09T10:23:57;19.30;99.90
37642;DHT22;23486;51.956;5.888;2023-10-09T10:26:40;19.30;99.90
37642;DHT22;23486;51.956;5.888;2023-10-09T10:29:19;19.40;99.90
37642;DHT22;23486;51.956;5.888;2023-10-09T10:32:01;19.40;99.90
37642;DHT22;23486;51.956;5.888;2023-10-09T10:34:52;19.40;99.90
37642;DHT22;23486;51.956;5.888;2023-10-09T10:37:41;19.50;99.90
37642;DHT22;23486;51.956;5.888;2023-10-09T10:40:25;19.50;99.90
37642;DHT22;23486;51.956;5.888;2023-10-09T10:43:07;19.60;99.90
37642;DHT22;23486;51.956;5.888;2023-10-09T10:46:06;19.60;99.90
37642;DHT22;23486;51.956;5.888;2023-10-09T10:48:40;19.70;99.90
37642;DHT22;23486;51.956;5.888;2023-10-09T10:51:12;19.70;99.90
37642;DHT22;23486;51.956;5.888;2023-10-09T10:53:50;19.80;99.90
37642;DHT22;23486;51.956;5.888;2023-10-09T10:56:18;19.80;99.90
37642;DHT22;23486;51.956;5.888;2023-10-09T10:59:00;19.90;99.90
37642;DHT22;23486;51.956;5.888;2023-10-09T11:01:32;19.90;99.90
37642;DHT22;23486;51.956;5.888;2023-10-09T11:04:36;20.00;99.90
37642;DHT22;23486;51.956;5.888;2023-10-09T11:07:08;20.00;99.90
37642;DHT22;23486;51.956;5.888;2023-10-09T11:09:57;20.10;99.90
37642;DHT22;23486;51.956;5.888;2023-10-09T11:15:14;20.30;99.90
37642;DHT22;23486;51.956;5.888;2023-10-09T11:17:58;20.30;99.90
37642;DHT22;23486;51.956;5.888;2023-10-09T11:20:24;20.40;99.90
37642;DHT22;23486;51.956;5.888;2023-10-09T11:22:52;20.40;99.90
37642;DHT22;23486;51.956;5.888;2023-10-09T11:25:40;20.40;99.90
37642;DHT22;23486;51.956;5.888;2023-10-09T11:28:22;20.50;99.90
37642;DHT22;23486;51.956;5.888;2023-10-09T11:31:11;20.50;99.90
37642;DHT22;23486;51.956;5.888;2023-10-09T11:33:47;20.50;99.90
37642;DHT22;23486;51.956;5.888;2023-10-09T11:36:15;20.50;99.90
37642;DHT22;23486;51.956;5.888;2023-10-09T11:38:41;20.60;99.90
37642;DHT22;23486;51.956;5.888;2023-10-09T11:41:17;20.60;99.90
37642;DHT22;23486;51.956;5.888;2023-10-09T11:43:50;20.70;99.90
37642;DHT22;23486;51.956;5.888;2023-10-09T11:46:20;20.70;99.90
37642;DHT22;23486;51.956;5.888;2023-10-09T11:49:08;20.80;99.90
37642;DHT22;23486;51.956;5.888;2023-10-09T11:51:51;20.90;99.90
37642;DHT22;23486;51.956;5.888;2023-10-09T11:54:55;20.90;99.90
37642;DHT22;23486;51.956;5.888;2023-10-09T11:57:22;20.90;99.90
37642;DHT22;23486;51.956;5.888;2023-10-09T12:00:02;20.90;99.90
37642;DHT22;23486;51.956;5.888;2023-10-09T12:02:36;20.90;99.90
37642;DHT22;23486;51.956;5.888;2023-10-09T12:05:10;21.00;99.90
37642;DHT22;23486;51.956;5.888;2023-10-09T12:07:43;21.10;99.90
37642;DHT22;23486;51.956;5.888;2023-10-09T12:10:09;21.10;99.90
37642;DHT22;23486;51.956;5.888;2023-10-09T12:12:35;21.20;99.90
37642;DHT22;23486;51.956;5.888;2023-10-09T12:15:01;21.20;99.90
37642;DHT22;23486;51.956;5.888;2023-10-09T12:17:30;21.20;99.90
37642;DHT22;23486;51.956;5.888;2023-10-09T12:19:56;21.20;99.90
37642;DHT22;23486;51.956;5.888;2023-10-09T12:22:21;21.20;99.90
37642;DHT22;23486;51.956;5.888;2023-10-09T12:24:47;21.20;99.90
37642;DHT22;23486;51.956;5.888;2023-10-09T12:27:13;21.20;99.90
37642;DHT22;23486;51.956;5.888;2023-10-09T12:29:39;21.10;99.90
37642;DHT22;23486;51.956;5.888;2023-10-09T12:32:10;21.10;99.90
37642;DHT22;23486;51.956;5.888;2023-10-09T12:34:36;21.20;99.90
37642;DHT22;23486;51.956;5.888;2023-10-09T12:37:03;21.20;99.90
37642;DHT22;23486;51.956;5.888;2023-10-09T12:39:30;21.30;99.90
37642;DHT22;23486;51.956;5.888;2023-10-09T12:41:59;21.30;99.90
37642;DHT22;23486;51.956;5.888;2023-10-09T12:44:35;21.40;99.90
37642;DHT22;23486;51.956;5.888;2023-10-09T12:47:08;21.40;99.90
37642;DHT22;23486;51.956;5.888;2023-10-09T12:49:36;21.40;99.90
37642;DHT22;23486;51.956;5.888;2023-10-09T12:52:09;21.40;99.90
37642;DHT22;23486;51.956;5.888;2023-10-09T12:54:45;21.30;99.90
37642;DHT22;23486;51.956;5.888;2023-10-09T12:57:13;21.30;99.90
37642;DHT22;23486;51.956;5.888;2023-10-09T12:59:40;21.20;99.90
37642;DHT22;23486;51.956;5.888;2023-10-09T13:02:12;21.10;99.90
37642;DHT22;23486;51.956;5.888;2023-10-09T13:04:38;21.10;99.90
37642;DHT22;23486;51.956;5.888;2023-10-09T13:07:06;21.00;99.90
37642;DHT22;23486;51.956;5.888;2023-10-09T13:09:34;21.00;99.90
37642;DHT22;23486;51.956;5.888;2023-10-09T13:12:08;21.10;99.90
37642;DHT22;23486;51.956;5.888;2023-10-09T13:14:34;21.10;99.90
37642;DHT22;23486;51.956;5.888;2023-10-09T13:17:01;21.10;99.90
37642;DHT22;23486;51.956;5.888;2023-10-09T13:19:34;21.20;99.90
37642;DHT22;23486;51.956;5.888;2023-10-09T13:21:59;21.10;99.90
37642;DHT22;23486;51.956;5.888;2023-10-09T13:24:28;21.10;99.90
37642;DHT22;23486;51.956;5.888;2023-10-09T13:26:55;21.10;99.90
37642;DHT22;23486;51.956;5.888;2023-10-09T13:29:23;21.00;99.90
37642;DHT22;23486;51.956;5.888;2023-10-09T13:31:52;20.90;99.90
37642;DHT22;23486;51.956;5.888;2023-10-09T13:34:23;20.90;99.90
37642;DHT22;23486;51.956;5.888;2023-10-09T13:36:53;20.80;99.90
37642;DHT22;23486;51.956;5.888;2023-10-09T13:39:20;20.80;99.90
37642;DHT22;23486;51.956;5.888;2023-10-09T13:41:58;20.80;99.90
37642;DHT22;23486;51.956;5.888;2023-10-09T13:44:33;20.80;99.90
37642;DHT22;23486;51.956;5.888;2023-10-09T13:47:01;20.80;99.90
37642;DHT22;23486;51.956;5.888;2023-10-09T13:49:28;20.80;99.90
37642;DHT22;23486;51.956;5.888;2023-10-09T13:52:01;20.70;99.90
37642;DHT22;23486;51.956;5.888;2023-10-09T13:54:27;20.70;99.90
37642;DHT22;23486;51.956;5.888;2023-10-09T13:56:59;20.60;99.90
37642;DHT22;23486;51.956;5.888;2023-10-09T13:59:25;20.60;99.90
37642;DHT22;23486;51.956;5.888;2023-10-09T14:01:51;20.60;99.90
37642;DHT22;23486;51.956;5.888;2023-10-09T14:04:23;20.60;99.90
37642;DHT22;23486;51.956;5.888;2023-10-09T14:06:50;20.60;99.90
37642;DHT22;23486;51.956;5.888;2023-10-09T14:09:23;20.60;99.90
37642;DHT22;23486;51.956;5.888;2023-10-09T14:12:04;20.60;99.90
37642;DHT22;23486;51.956;5.888;2023-10-09T14:14:41;20.60;99.90
37642;DHT22;23486;51.956;5.888;2023-10-09T14:17:13;20.60;99.90
37642;DHT22;23486;51.956;5.888;2023-10-09T14:19:42;20.70;99.90
37642;DHT22;23486;51.956;5.888;2023-10-09T14:22:13;20.70;99.90
37642;DHT22;23486;51.956;5.888;2023-10-09T14:24:45;20.70;99.90
37642;DHT22;23486;51.956;5.888;2023-10-09T14:27:14;20.70;99.90
37642;DHT22;23486;51.956;5.888;2023-10-09T14:29:48;20.70;99.90
37642;DHT22;23486;51.956;5.888;2023-10-09T14:32:15;20.70;99.90
37642;DHT22;23486;51.956;5.888;2023-10-09T14:34:42;20.70;99.90
37642;DHT22;23486;51.956;5.888;2023-10-09T14:37:20;20.60;99.90
37642;DHT22;23486;51.956;5.888;2023-10-09T14:39:49;20.60;99.90
37642;DHT22;23486;51.956;5.888;2023-10-09T14:42:15;20.70;99.90
37642;DHT22;23486;51.956;5.888;2023-10-09T14:44:41;20.60;99.90
37642;DHT22;23486;51.956;5.888;2023-10-09T14:47:07;20.60;99.90
37642;DHT22;23486;51.956;5.888;2023-10-09T14:49:35;20.60;99.90
37642;DHT22;23486;51.956;5.888;2023-10-09T14:52:05;20.60;99.90
37642;DHT22;23486;51.956;5.888;2023-10-09T14:54:34;20.60;99.90
37642;DHT22;23486;51.956;5.888;2023-10-09T14:57:00;20.60;99.90
37642;DHT22;23486;51.956;5.888;2023-10-09T14:59:26;20.60;99.90
37642;DHT22;23486;51.956;5.888;2023-10-09T15:01:51;20.60;99.90
37642;DHT22;23486;51.956;5.888;2023-10-09T15:04:19;20.60;99.90
37642;DHT22;23486;51.956;5.888;2023-10-09T15:06:45;20.60;99.90
37642;DHT22;23486;51.956;5.888;2023-10-09T15:09:15;20.60;99.90
37642;DHT22;23486;51.956;5.888;2023-10-09T15:11:54;20.60;99.90
37642;DHT22;23486;51.956;5.888;2023-10-09T15:14:20;20.60;99.90
37642;DHT22;23486;51.956;5.888;2023-10-09T15:16:46;20.60;99.90
37642;DHT22;23486;51.956;5.888;2023-10-09T15:19:13;20.60;99.90
37642;DHT22;23486;51.956;5.888;2023-10-09T15:21:39;20.60;99.90
37642;DHT22;23486;51.956;5.888;2023-10-09T15:24:12;20.70;99.90
37642;DHT22;23486;51.956;5.888;2023-10-09T15:26:45;20.70;99.90
37642;DHT22;23486;51.956;5.888;2023-10-09T15:29:18;20.70;99.90
37642;DHT22;23486;51.956;5.888;2023-10-09T15:31:51;20.60;99.90
37642;DHT22;23486;51.956;5.888;2023-10-09T15:34:16;20.60;99.90
37642;DHT22;23486;51.956;5.888;2023-10-09T15:36:45;20.60;99.90
37642;DHT22;23486;51.956;5.888;2023-10-09T15:39:12;20.60;99.90
37642;DHT22;23486;51.956;5.888;2023-10-09T15:41:38;20.50;99.90
37642;DHT22;23486;51.956;5.888;2023-10-09T15:44:05;20.50;99.90
37642;DHT22;23486;51.956;5.888;2023-10-09T15:46:31;20.50;99.90
37642;DHT22;23486;51.956;5.888;2023-10-09T15:49:00;20.40;99.90
37642;DHT22;23486;51.956;5.888;2023-10-09T15:51:29;20.40;99.90
37642;DHT22;23486;51.956;5.888;2023-10-09T15:53:56;20.40;99.90
37642;DHT22;23486;51.956;5.888;2023-10-09T15:56:22;20.40;99.90
37642;DHT22;23486;51.956;5.888;2023-10-09T15:58:48;20.30;99.90
37642;DHT22;23486;51.956;5.888;2023-10-09T16:01:17;20.30;99.90
37642;DHT22;23486;51.956;5.888;2023-10-09T16:03:47;20.30;99.90
37642;DHT22;23486;51.956;5.888;2023-10-09T16:06:14;20.20;99.90
37642;DHT22;23486;51.956;5.888;2023-10-09T16:08:43;20.10;99.90
37642;DHT22;23486;51.956;5.888;2023-10-09T16:11:11;20.10;99.90
37642;DHT22;23486;51.956;5.888;2023-10-09T16:13:38;20.00;99.90
37642;DHT22;23486;51.956;5.888;2023-10-09T16:16:05;20.00;99.90
37642;DHT22;23486;51.956;5.888;2023-10-09T16:18:34;20.00;99.90
37642;DHT22;23486;51.956;5.888;2023-10-09T16:21:00;19.90;99.90
37642;DHT22;23486;51.956;5.888;2023-10-09T16:23:30;19.90;99.90
37642;DHT22;23486;51.956;5.888;2023-10-09T16:25:56;19.80;99.90
37642;DHT22;23486;51.956;5.888;2023-10-09T16:28:22;19.80;99.90